sensor_id;sensor_type;location;lat;lon;timestamp;pressure;altitude;pressure_sealevel;temperature;humidity
71151;BME280;59071;42.138;24.768;2024-02-21T00:01:21;100438.69;;;7.02;89.86
71151;BME280;59071;42.138;24.768;2024-02-21T00:03:47;100435.88;;;7.12;89.51
71151;BME280;59071;42.138;24.768;2024-02-21T00:06:12;100435.53;;;6.98;89.43
71151;BME280;59071;42.138;24.768;2024-02-21T00:08:38;100435.84;;;6.87;90.77
71151;BME280;59071;42.138;24.768;2024-02-21T00:11:03;100422.63;;;6.95;91.44
71151;BME280;59071;42.138;24.768;2024-02-21T00:13:29;100433.56;;;7.09;90.36
71151;BME280;59071;42.138;24.768;2024-02-21T00:15:55;100433.22;;;6.95;91.62
71151;BME280;59071;42.138;24.768;2024-02-21T00:18:20;100426.44;;;7.01;91.00
71151;BME280;59071;42.138;24.768;2024-02-21T00:20:46;100426.59;;;6.99;90.88
71151;BME280;59071;42.138;24.768;2024-02-21T00:23:11;100427.78;;;7.13;89.76
71151;BME280;59071;42.138;24.768;2024-02-21T00:25:37;100410.03;;;6.89;91.28
71151;BME280;59071;42.138;24.768;2024-02-21T00:28:02;100425.25;;;6.87;91.63
71151;BME280;59071;42.138;24.768;2024-02-21T00:30:28;100434.03;;;7.04;91.45
71151;BME280;59071;42.138;24.768;2024-02-21T00:32:53;100423.47;;;6.96;91.57
71151;BME280;59071;42.138;24.768;2024-02-21T00:35:19;100420.50;;;6.99;91.39
71151;BME280;59071;42.138;24.768;2024-02-21T00:37:44;100414.84;;;7.02;91.88
71151;BME280;59071;42.138;24.768;2024-02-21T00:40:10;100411.03;;;6.88;91.47
71151;BME280;59071;42.138;24.768;2024-02-21T00:42:36;100407.69;;;6.70;92.36
71151;BME280;59071;42.138;24.768;2024-02-21T00:45:01;100408.69;;;6.69;93.45
71151;BME280;59071;42.138;24.768;2024-02-21T00:47:27;100404.22;;;6.77;93.58
71151;BME280;59071;42.138;24.768;2024-02-21T00:49:52;100405.59;;;6.90;92.24
71151;BME280;59071;42.138;24.768;2024-02-21T00:52:17;100399.66;;;6.96;92.07
71151;BME280;59071;42.138;24.768;2024-02-21T00:54:43;100399.47;;;7.05;90.29
71151;BME280;59071;42.138;24.768;2024-02-21T00:57:08;100396.34;;;6.94;91.70
71151;BME280;59071;42.138;24.768;2024-02-21T00:59:34;100397.47;;;6.83;91.10
71151;BME280;59071;42.138;24.768;2024-02-21T01:01:59;100403.41;;;6.69;92.47
71151;BME280;59071;42.138;24.768;2024-02-21T01:04:24;100394.50;;;6.78;91.16
71151;BME280;59071;42.138;24.768;2024-02-21T01:06:50;100392.84;;;6.85;91.21
71151;BME280;59071;42.138;24.768;2024-02-21T01:09:15;100389.88;;;6.80;90.92
71151;BME280;59071;42.138;24.768;2024-02-21T01:11:40;100393.50;;;6.87;91.18
71151;BME280;59071;42.138;24.768;2024-02-21T01:14:06;100386.72;;;6.76;90.63
71151;BME280;59071;42.138;24.768;2024-02-21T01:16:31;100389.16;;;6.61;91.91
71151;BME280;59071;42.138;24.768;2024-02-21T01:18:56;100388.72;;;6.74;91.64
71151;BME280;59071;42.138;24.768;2024-02-21T01:21:22;100382.09;;;6.70;91.39
71151;BME280;59071;42.138;24.768;2024-02-21T01:23:48;100374.09;;;6.54;91.35
71151;BME280;59071;42.138;24.768;2024-02-21T01:26:13;100381.91;;;6.63;91.90
71151;BME280;59071;42.138;24.768;2024-02-21T01:28:41;100380.56;;;6.51;92.53
71151;BME280;59071;42.138;24.768;2024-02-21T01:31:06;100381.53;;;6.50;93.39
71151;BME280;59071;42.138;24.768;2024-02-21T01:33:32;100368.88;;;6.70;92.80
71151;BME280;59071;42.138;24.768;2024-02-21T01:36:03;100372.03;;;6.82;91.30
71151;BME280;59071;42.138;24.768;2024-02-21T01:38:28;100368.16;;;6.68;91.13
71151;BME280;59071;42.138;24.768;2024-02-21T01:40:54;100369.69;;;6.87;90.18
71151;BME280;59071;42.138;24.768;2024-02-21T01:43:20;100370.00;;;6.68;90.74
71151;BME280;59071;42.138;24.768;2024-02-21T01:45:50;100366.69;;;6.57;91.87
71151;BME280;59071;42.138;24.768;2024-02-21T01:48:18;100363.88;;;6.75;91.18
71151;BME280;59071;42.138;24.768;2024-02-21T01:50:45;100355.44;;;6.72;91.21
71151;BME280;59071;42.138;24.768;2024-02-21T01:53:13;100362.72;;;6.70;91.62
71151;BME280;59071;42.138;24.768;2024-02-21T01:55:44;100368.50;;;6.57;92.83
71151;BME280;59071;42.138;24.768;2024-02-21T01:58:12;100366.41;;;6.93;91.20
71151;BME280;59071;42.138;24.768;2024-02-21T02:00:41;100356.47;;;7.03;90.31
71151;BME280;59071;42.138;24.768;2024-02-21T02:03:07;100365.91;;;7.06;90.18
71151;BME280;59071;42.138;24.768;2024-02-21T02:05:35;100364.75;;;6.92;89.69
71151;BME280;59071;42.138;24.768;2024-02-21T02:08:01;100371.19;;;6.90;91.57
71151;BME280;59071;42.138;24.768;2024-02-21T02:10:26;100374.19;;;7.03;89.75
71151;BME280;59071;42.138;24.768;2024-02-21T02:12:52;100362.75;;;6.86;90.76
71151;BME280;59071;42.138;24.768;2024-02-21T02:15:17;100367.69;;;6.89;91.40
71151;BME280;59071;42.138;24.768;2024-02-21T02:17:43;100359.94;;;6.96;89.32
71151;BME280;59071;42.138;24.768;2024-02-21T02:20:08;100355.59;;;6.62;91.22
71151;BME280;59071;42.138;24.768;2024-02-21T02:22:36;100360.22;;;6.60;92.24
71151;BME280;59071;42.138;24.768;2024-02-21T02:25:03;100357.94;;;6.57;92.87
71151;BME280;59071;42.138;24.768;2024-02-21T02:27:29;100342.81;;;6.33;93.64
71151;BME280;59071;42.138;24.768;2024-02-21T02:29:54;100356.06;;;6.49;92.81
71151;BME280;59071;42.138;24.768;2024-02-21T02:32:19;100356.75;;;6.51;93.18
71151;BME280;59071;42.138;24.768;2024-02-21T02:34:45;100356.72;;;6.43;93.56
71151;BME280;59071;42.138;24.768;2024-02-21T02:37:10;100359.38;;;6.43;92.91
71151;BME280;59071;42.138;24.768;2024-02-21T02:39:35;100361.00;;;6.36;92.95
71151;BME280;59071;42.138;24.768;2024-02-21T02:42:02;100361.97;;;6.26;94.80
71151;BME280;59071;42.138;24.768;2024-02-21T02:44:27;100360.31;;;6.25;94.79
71151;BME280;59071;42.138;24.768;2024-02-21T02:46:52;100360.28;;;6.17;95.44
71151;BME280;59071;42.138;24.768;2024-02-21T02:49:18;100370.06;;;6.25;94.95
71151;BME280;59071;42.138;24.768;2024-02-21T02:51:43;100357.31;;;6.20;96.22
71151;BME280;59071;42.138;24.768;2024-02-21T02:54:09;100367.88;;;6.12;96.09
71151;BME280;59071;42.138;24.768;2024-02-21T02:56:35;100371.69;;;6.26;94.92
71151;BME280;59071;42.138;24.768;2024-02-21T02:59:00;100368.31;;;6.42;94.66
71151;BME280;59071;42.138;24.768;2024-02-21T03:01:26;100366.78;;;6.39;93.43
71151;BME280;59071;42.138;24.768;2024-02-21T03:03:51;100351.22;;;6.28;94.24
71151;BME280;59071;42.138;24.768;2024-02-21T03:06:16;100363.38;;;6.55;93.37
71151;BME280;59071;42.138;24.768;2024-02-21T03:08:42;100362.22;;;6.66;91.81
71151;BME280;59071;42.138;24.768;2024-02-21T03:11:08;100357.75;;;6.50;92.34
71151;BME280;59071;42.138;24.768;2024-02-21T03:13:33;100357.06;;;6.48;92.13
71151;BME280;59071;42.138;24.768;2024-02-21T03:15:59;100364.41;;;6.71;91.61
71151;BME280;59071;42.138;24.768;2024-02-21T03:18:24;100366.03;;;6.55;92.48
71151;BME280;59071;42.138;24.768;2024-02-21T03:20:50;100357.28;;;6.63;93.06
71151;BME280;59071;42.138;24.768;2024-02-21T03:23:15;100354.13;;;6.59;92.71
71151;BME280;59071;42.138;24.768;2024-02-21T03:25:40;100351.13;;;6.54;92.39
71151;BME280;59071;42.138;24.768;2024-02-21T03:28:06;100356.22;;;6.39;93.12
71151;BME280;59071;42.138;24.768;2024-02-21T03:30:31;100352.97;;;6.54;94.85
71151;BME280;59071;42.138;24.768;2024-02-21T03:32:58;100362.56;;;6.79;93.51
71151;BME280;59071;42.138;24.768;2024-02-21T03:35:24;100342.72;;;6.67;94.16
71151;BME280;59071;42.138;24.768;2024-02-21T03:37:51;100347.88;;;6.69;93.53
71151;BME280;59071;42.138;24.768;2024-02-21T03:40:17;100344.38;;;6.68;93.22
71151;BME280;59071;42.138;24.768;2024-02-21T03:42:42;100351.47;;;6.59;92.79
71151;BME280;59071;42.138;24.768;2024-02-21T03:45:08;100344.88;;;6.55;93.33
71151;BME280;59071;42.138;24.768;2024-02-21T03:47:34;100343.84;;;6.40;94.65
71151;BME280;59071;42.138;24.768;2024-02-21T03:49:59;100353.41;;;6.41;95.35
71151;BME280;59071;42.138;24.768;2024-02-21T03:52:25;100350.41;;;6.36;95.51
71151;BME280;59071;42.138;24.768;2024-02-21T03:54:50;100350.09;;;6.39;95.97
71151;BME280;59071;42.138;24.768;2024-02-21T03:57:16;100336.50;;;6.17;97.15
71151;BME280;59071;42.138;24.768;2024-02-21T03:59:42;100362.97;;;6.34;97.32
71151;BME280;59071;42.138;24.768;2024-02-21T04:02:08;100332.28;;;6.49;96.09
71151;BME280;59071;42.138;24.768;2024-02-21T04:04:34;100350.97;;;6.48;96.56
71151;BME280;59071;42.138;24.768;2024-02-21T04:07:02;100352.19;;;6.78;94.62
71151;BME280;59071;42.138;24.768;2024-02-21T04:09:32;100356.97;;;6.91;93.23
71151;BME280;59071;42.138;24.768;2024-02-21T04:11:58;100357.28;;;6.63;93.58
71151;BME280;59071;42.138;24.768;2024-02-21T04:14:23;100356.94;;;6.66;93.96
71151;BME280;59071;42.138;24.768;2024-02-21T04:16:49;100358.75;;;6.65;94.17
71151;BME280;59071;42.138;24.768;2024-02-21T04:19:14;100365.31;;;6.45;95.00
71151;BME280;59071;42.138;24.768;2024-02-21T04:21:39;100368.31;;;6.42;96.02
71151;BME280;59071;42.138;24.768;2024-02-21T04:24:05;100365.75;;;6.24;96.27
71151;BME280;59071;42.138;24.768;2024-02-21T04:26:30;100363.91;;;6.16;95.71
71151;BME280;59071;42.138;24.768;2024-02-21T04:28:56;100369.03;;;5.83;95.42
71151;BME280;59071;42.138;24.768;2024-02-21T04:31:21;100372.31;;;5.77;96.38
71151;BME280;59071;42.138;24.768;2024-02-21T04:33:46;100364.72;;;5.82;94.78
71151;BME280;59071;42.138;24.768;2024-02-21T04:36:12;100372.34;;;5.85;94.69
71151;BME280;59071;42.138;24.768;2024-02-21T04:38:37;100371.00;;;6.07;94.23
71151;BME280;59071;42.138;24.768;2024-02-21T04:41:04;100378.13;;;5.89;94.53
71151;BME280;59071;42.138;24.768;2024-02-21T04:43:29;100377.25;;;6.06;94.15
71151;BME280;59071;42.138;24.768;2024-02-21T04:45:55;100387.25;;;7.13;100.00
71151;BME280;59071;42.138;24.768;2024-02-21T04:48:20;100388.72;;;7.15;99.08
71151;BME280;59071;42.138;24.768;2024-02-21T04:50:46;100386.25;;;7.14;98.08
71151;BME280;59071;42.138;24.768;2024-02-21T04:53:11;100396.34;;;7.43;93.96
71151;BME280;59071;42.138;24.768;2024-02-21T04:55:36;100400.16;;;7.49;88.23
71151;BME280;59071;42.138;24.768;2024-02-21T04:58:02;100391.19;;;6.92;86.80
71151;BME280;59071;42.138;24.768;2024-02-21T05:00:27;100398.97;;;6.85;90.69
71151;BME280;59071;42.138;24.768;2024-02-21T05:02:53;100399.34;;;7.23;89.93
71151;BME280;59071;42.138;24.768;2024-02-21T05:05:18;100399.97;;;6.84;88.32
71151;BME280;59071;42.138;24.768;2024-02-21T05:07:43;100397.00;;;6.29;90.50
71151;BME280;59071;42.138;24.768;2024-02-21T05:10:09;100394.66;;;6.25;90.92
71151;BME280;59071;42.138;24.768;2024-02-21T05:12:35;100408.47;;;6.45;91.88
71151;BME280;59071;42.138;24.768;2024-02-21T05:15:00;100408.94;;;7.41;88.54
71151;BME280;59071;42.138;24.768;2024-02-21T05:17:25;100400.31;;;7.39;86.41
71151;BME280;59071;42.138;24.768;2024-02-21T05:19:51;100408.41;;;6.96;88.56
71151;BME280;59071;42.138;24.768;2024-02-21T05:22:16;100419.00;;;7.21;88.68
71151;BME280;59071;42.138;24.768;2024-02-21T05:24:41;100410.25;;;7.12;88.49
71151;BME280;59071;42.138;24.768;2024-02-21T05:27:07;100413.78;;;6.62;89.88
71151;BME280;59071;42.138;24.768;2024-02-21T05:29:33;100408.38;;;6.21;92.04
71151;BME280;59071;42.138;24.768;2024-02-21T05:31:58;100406.91;;;6.26;93.47
71151;BME280;59071;42.138;24.768;2024-02-21T05:34:24;100408.28;;;7.14;89.12
71151;BME280;59071;42.138;24.768;2024-02-21T05:36:50;100410.31;;;6.53;90.84
71151;BME280;59071;42.138;24.768;2024-02-21T05:39:16;100419.50;;;6.41;92.01
71151;BME280;59071;42.138;24.768;2024-02-21T05:41:42;100424.00;;;6.49;92.25
71151;BME280;59071;42.138;24.768;2024-02-21T05:44:07;100427.00;;;6.62;93.61
71151;BME280;59071;42.138;24.768;2024-02-21T05:46:33;100428.97;;;7.35;89.72
71151;BME280;59071;42.138;24.768;2024-02-21T05:48:58;100437.34;;;7.06;90.50
71151;BME280;59071;42.138;24.768;2024-02-21T05:51:24;100423.94;;;6.83;90.47
71151;BME280;59071;42.138;24.768;2024-02-21T05:53:49;100437.34;;;6.98;90.20
71151;BME280;59071;42.138;24.768;2024-02-21T05:56:15;100439.19;;;7.05;90.88
71151;BME280;59071;42.138;24.768;2024-02-21T05:58:40;100436.19;;;7.91;86.62
71151;BME280;59071;42.138;24.768;2024-02-21T06:01:06;100435.72;;;7.46;86.98
71151;BME280;59071;42.138;24.768;2024-02-21T06:03:33;100438.72;;;7.10;87.99
71151;BME280;59071;42.138;24.768;2024-02-21T06:05:59;100431.91;;;6.99;88.76
71151;BME280;59071;42.138;24.768;2024-02-21T06:08:25;100441.50;;;7.25;86.09
71151;BME280;59071;42.138;24.768;2024-02-21T06:10:50;100454.56;;;7.84;84.99
71151;BME280;59071;42.138;24.768;2024-02-21T06:13:19;100454.09;;;7.64;84.31
71151;BME280;59071;42.138;24.768;2024-02-21T06:15:46;100446.16;;;7.31;85.64
71151;BME280;59071;42.138;24.768;2024-02-21T06:18:11;100459.56;;;7.38;86.16
71151;BME280;59071;42.138;24.768;2024-02-21T06:20:37;100448.28;;;7.11;87.45
71151;BME280;59071;42.138;24.768;2024-02-21T06:23:05;100457.38;;;7.91;86.66
71151;BME280;59071;42.138;24.768;2024-02-21T06:25:31;100458.22;;;7.83;83.02
71151;BME280;59071;42.138;24.768;2024-02-21T06:27:56;100461.22;;;7.47;85.45
71151;BME280;59071;42.138;24.768;2024-02-21T06:30:21;100468.31;;;7.79;84.38
71151;BME280;59071;42.138;24.768;2024-02-21T06:32:47;100466.66;;;7.87;83.10
71151;BME280;59071;42.138;24.768;2024-02-21T06:35:12;100465.41;;;8.30;81.74
71151;BME280;59071;42.138;24.768;2024-02-21T06:37:37;100453.81;;;8.71;79.57
71151;BME280;59071;42.138;24.768;2024-02-21T06:40:04;100457.50;;;8.61;79.36
71151;BME280;59071;42.138;24.768;2024-02-21T06:42:29;100464.75;;;8.68;79.29
71151;BME280;59071;42.138;24.768;2024-02-21T06:44:55;100458.75;;;8.43;80.75
71151;BME280;59071;42.138;24.768;2024-02-21T06:47:21;100466.31;;;7.98;85.20
71151;BME280;59071;42.138;24.768;2024-02-21T06:49:50;100454.53;;;8.56;81.87
71151;BME280;59071;42.138;24.768;2024-02-21T06:52:19;100463.63;;;8.62;80.73
71151;BME280;59071;42.138;24.768;2024-02-21T06:54:49;100461.78;;;8.71;80.38
71151;BME280;59071;42.138;24.768;2024-02-21T06:57:14;100463.72;;;8.46;81.54
71151;BME280;59071;42.138;24.768;2024-02-21T06:59:41;100466.81;;;9.12;80.21
71151;BME280;59071;42.138;24.768;2024-02-21T07:02:06;100460.53;;;9.36;77.99
71151;BME280;59071;42.138;24.768;2024-02-21T07:04:32;100469.69;;;9.33;78.85
71151;BME280;59071;42.138;24.768;2024-02-21T07:06:58;100463.31;;;9.43;79.38
71151;BME280;59071;42.138;24.768;2024-02-21T07:09:23;100449.84;;;9.21;78.53
71151;BME280;59071;42.138;24.768;2024-02-21T07:11:49;100466.22;;;9.86;77.76
71151;BME280;59071;42.138;24.768;2024-02-21T07:14:14;100458.56;;;10.50;73.38
71151;BME280;59071;42.138;24.768;2024-02-21T07:16:40;100455.81;;;10.14;73.67
71151;BME280;59071;42.138;24.768;2024-02-21T07:19:06;100459.69;;;10.11;74.10
71151;BME280;59071;42.138;24.768;2024-02-21T07:21:31;100459.38;;;10.06;73.25
71151;BME280;59071;42.138;24.768;2024-02-21T07:23:57;100457.44;;;10.74;72.16
71151;BME280;59071;42.138;24.768;2024-02-21T07:26:22;100460.31;;;11.31;68.12
71151;BME280;59071;42.138;24.768;2024-02-21T07:28:47;100457.50;;;11.18;68.16
71151;BME280;59071;42.138;24.768;2024-02-21T07:31:13;100461.38;;;11.65;65.50
71151;BME280;59071;42.138;24.768;2024-02-21T07:33:38;100463.75;;;11.53;66.50
71151;BME280;59071;42.138;24.768;2024-02-21T07:36:10;100454.00;;;12.17;64.40
71151;BME280;59071;42.138;24.768;2024-02-21T07:38:36;100467.72;;;12.13;63.88
71151;BME280;59071;42.138;24.768;2024-02-21T07:41:02;100459.88;;;12.05;63.13
71151;BME280;59071;42.138;24.768;2024-02-21T07:43:29;100456.91;;;12.70;61.87
71151;BME280;59071;42.138;24.768;2024-02-21T07:45:54;100466.19;;;12.74;60.61
71151;BME280;59071;42.138;24.768;2024-02-21T07:48:21;100469.75;;;12.46;60.66
71151;BME280;59071;42.138;24.768;2024-02-21T07:50:50;100469.31;;;12.98;60.43
71151;BME280;59071;42.138;24.768;2024-02-21T07:53:15;100471.28;;;13.37;58.34
71151;BME280;59071;42.138;24.768;2024-02-21T07:55:41;100469.66;;;12.68;59.62
71151;BME280;59071;42.138;24.768;2024-02-21T07:58:06;100470.03;;;12.65;60.51
71151;BME280;59071;42.138;24.768;2024-02-21T08:00:31;100464.69;;;13.40;59.54
71151;BME280;59071;42.138;24.768;2024-02-21T08:02:57;100470.00;;;14.06;57.11
71151;BME280;59071;42.138;24.768;2024-02-21T08:05:22;100464.28;;;13.76;56.56
71151;BME280;59071;42.138;24.768;2024-02-21T08:07:48;100460.94;;;13.14;58.25
71151;BME280;59071;42.138;24.768;2024-02-21T08:10:13;100468.66;;;12.82;61.06
71151;BME280;59071;42.138;24.768;2024-02-21T08:12:39;100463.66;;;13.87;57.27
71151;BME280;59071;42.138;24.768;2024-02-21T08:15:04;100472.72;;;12.65;59.16
71151;BME280;59071;42.138;24.768;2024-02-21T08:17:30;100469.09;;;12.93;58.79
71151;BME280;59071;42.138;24.768;2024-02-21T08:19:55;100463.50;;;13.56;58.23
71151;BME280;59071;42.138;24.768;2024-02-21T08:22:21;100466.13;;;13.36;57.87
71151;BME280;59071;42.138;24.768;2024-02-21T08:24:46;100467.38;;;13.46;57.93
71151;BME280;59071;42.138;24.768;2024-02-21T08:27:11;100470.25;;;13.92;56.07
71151;BME280;59071;42.138;24.768;2024-02-21T08:29:37;100475.19;;;13.81;56.03
71151;BME280;59071;42.138;24.768;2024-02-21T08:32:02;100471.22;;;13.17;57.69
71151;BME280;59071;42.138;24.768;2024-02-21T08:34:28;100475.38;;;13.40;57.03
71151;BME280;59071;42.138;24.768;2024-02-21T08:36:55;100473.28;;;13.28;56.71
71151;BME280;59071;42.138;24.768;2024-02-21T08:39:21;100468.53;;;13.17;56.64
71151;BME280;59071;42.138;24.768;2024-02-21T08:41:46;100475.00;;;13.43;55.85
71151;BME280;59071;42.138;24.768;2024-02-21T08:44:11;100477.03;;;13.94;53.91
71151;BME280;59071;42.138;24.768;2024-02-21T08:46:37;100470.59;;;13.15;55.38
71151;BME280;59071;42.138;24.768;2024-02-21T08:49:05;100477.56;;;13.03;55.39
71151;BME280;59071;42.138;24.768;2024-02-21T08:51:31;100471.28;;;13.84;54.03
71151;BME280;59071;42.138;24.768;2024-02-21T08:53:56;100476.03;;;13.68;53.57
71151;BME280;59071;42.138;24.768;2024-02-21T08:56:21;100477.66;;;13.43;53.93
71151;BME280;59071;42.138;24.768;2024-02-21T08:58:47;100479.72;;;13.47;54.67
71151;BME280;59071;42.138;24.768;2024-02-21T09:01:12;100477.66;;;13.63;53.69
71151;BME280;59071;42.138;24.768;2024-02-21T09:03:38;100471.63;;;13.14;55.56
71151;BME280;59071;42.138;24.768;2024-02-21T09:06:04;100476.78;;;13.22;55.85
71151;BME280;59071;42.138;24.768;2024-02-21T09:08:30;100482.59;;;13.93;54.51
71151;BME280;59071;42.138;24.768;2024-02-21T09:10:55;100484.25;;;13.40;55.24
71151;BME280;59071;42.138;24.768;2024-02-21T09:13:21;100472.25;;;13.16;55.09
71151;BME280;59071;42.138;24.768;2024-02-21T09:15:47;100475.59;;;13.32;55.73
71151;BME280;59071;42.138;24.768;2024-02-21T09:18:14;100479.09;;;13.39;54.67
71151;BME280;59071;42.138;24.768;2024-02-21T09:20:39;100464.44;;;13.15;55.84
71151;BME280;59071;42.138;24.768;2024-02-21T09:23:04;100469.44;;;13.51;55.33
71151;BME280;59071;42.138;24.768;2024-02-21T09:25:30;100474.75;;;14.04;55.57
71151;BME280;59071;42.138;24.768;2024-02-21T09:27:56;100466.53;;;14.06;54.76
71151;BME280;59071;42.138;24.768;2024-02-21T09:30:23;100465.34;;;13.62;55.16
71151;BME280;59071;42.138;24.768;2024-02-21T09:32:49;100460.81;;;14.54;53.68
71151;BME280;59071;42.138;24.768;2024-02-21T09:35:14;100462.50;;;14.48;51.41
71151;BME280;59071;42.138;24.768;2024-02-21T09:37:40;100459.81;;;14.55;51.79
71151;BME280;59071;42.138;24.768;2024-02-21T09:40:06;100460.19;;;15.36;50.04
71151;BME280;59071;42.138;24.768;2024-02-21T09:42:41;100465.09;;;15.96;48.37
71151;BME280;59071;42.138;24.768;2024-02-21T09:45:20;100461.50;;;15.27;49.16
71151;BME280;59071;42.138;24.768;2024-02-21T09:50:40;100459.19;;;15.62;47.86
71151;BME280;59071;42.138;24.768;2024-02-21T09:53:06;100455.31;;;14.94;48.48
71151;BME280;59071;42.138;24.768;2024-02-21T09:55:33;100448.16;;;15.20;48.57
71151;BME280;59071;42.138;24.768;2024-02-21T09:58:01;100446.22;;;15.84;47.55
71151;BME280;59071;42.138;24.768;2024-02-21T10:00:27;100455.09;;;15.85;45.75
71151;BME280;59071;42.138;24.768;2024-02-21T10:02:53;100452.53;;;15.39;47.79
71151;BME280;59071;42.138;24.768;2024-02-21T10:05:19;100451.91;;;15.94;46.38
71151;BME280;59071;42.138;24.768;2024-02-21T10:07:44;100448.63;;;16.29;44.59
71151;BME280;59071;42.138;24.768;2024-02-21T10:10:10;100453.25;;;16.03;45.44
71151;BME280;59071;42.138;24.768;2024-02-21T10:12:36;100443.38;;;15.79;45.27
71151;BME280;59071;42.138;24.768;2024-02-21T10:15:03;100436.81;;;16.67;42.46
71151;BME280;59071;42.138;24.768;2024-02-21T10:17:29;100419.13;;;16.11;43.51
71151;BME280;59071;42.138;24.768;2024-02-21T10:20:06;100430.81;;;15.73;44.65
71151;BME280;59071;42.138;24.768;2024-02-21T10:22:32;100423.63;;;16.96;43.01
71151;BME280;59071;42.138;24.768;2024-02-21T10:25:10;100413.47;;;17.64;41.75
71151;BME280;59071;42.138;24.768;2024-02-21T10:27:36;100415.66;;;17.43;40.99
71151;BME280;59071;42.138;24.768;2024-02-21T10:30:07;100414.97;;;16.94;41.27
71151;BME280;59071;42.138;24.768;2024-02-21T10:32:32;100400.31;;;17.20;41.54
71151;BME280;59071;42.138;24.768;2024-02-21T10:35:02;100392.00;;;18.28;40.85
71151;BME280;59071;42.138;24.768;2024-02-21T10:37:30;100388.63;;;18.21;39.17
71151;BME280;59071;42.138;24.768;2024-02-21T10:39:55;100382.09;;;17.22;41.09
71151;BME280;59071;42.138;24.768;2024-02-21T10:42:22;100382.69;;;17.95;40.47
71151;BME280;59071;42.138;24.768;2024-02-21T10:44:50;100370.88;;;17.61;39.47
71151;BME280;59071;42.138;24.768;2024-02-21T10:47:17;100371.19;;;17.05;39.74
71151;BME280;59071;42.138;24.768;2024-02-21T10:49:49;100365.34;;;17.20;41.46
71151;BME280;59071;42.138;24.768;2024-02-21T10:52:43;100368.53;;;17.64;38.82
71151;BME280;59071;42.138;24.768;2024-02-21T10:55:30;100356.00;;;16.80;40.40
71151;BME280;59071;42.138;24.768;2024-02-21T10:57:58;100356.91;;;16.14;41.74
71151;BME280;59071;42.138;24.768;2024-02-21T11:00:25;100342.91;;;17.26;39.88
71151;BME280;59071;42.138;24.768;2024-02-21T11:02:56;100342.59;;;18.22;38.65
71151;BME280;59071;42.138;24.768;2024-02-21T11:05:23;100343.72;;;17.86;37.95
71151;BME280;59071;42.138;24.768;2024-02-21T11:07:49;100337.84;;;18.01;38.46
71151;BME280;59071;42.138;24.768;2024-02-21T11:10:25;100338.34;;;17.97;37.95
71151;BME280;59071;42.138;24.768;2024-02-21T11:13:08;100337.75;;;17.25;38.99
71151;BME280;59071;42.138;24.768;2024-02-21T11:15:33;100333.91;;;17.20;38.75
71151;BME280;59071;42.138;24.768;2024-02-21T11:17:59;100323.94;;;17.92;37.25
71151;BME280;59071;42.138;24.768;2024-02-21T11:20:37;100323.44;;;17.83;36.83
71151;BME280;59071;42.138;24.768;2024-02-21T11:23:03;100327.47;;;17.10;38.07
71151;BME280;59071;42.138;24.768;2024-02-21T11:25:29;100311.19;;;17.64;38.43
71151;BME280;59071;42.138;24.768;2024-02-21T11:28:05;100320.13;;;18.05;36.85
71151;BME280;59071;42.138;24.768;2024-02-21T11:30:36;100323.38;;;17.54;37.86
71151;BME280;59071;42.138;24.768;2024-02-21T11:33:03;100306.78;;;18.10;37.71
71151;BME280;59071;42.138;24.768;2024-02-21T11:35:33;100306.00;;;18.84;35.70
71151;BME280;59071;42.138;24.768;2024-02-21T11:38:12;100295.75;;;17.71;36.76
71151;BME280;59071;42.138;24.768;2024-02-21T11:40:45;100302.72;;;17.84;37.02
71151;BME280;59071;42.138;24.768;2024-02-21T11:43:11;100303.56;;;18.25;36.77
71151;BME280;59071;42.138;24.768;2024-02-21T11:45:36;100297.59;;;17.70;37.85
71151;BME280;59071;42.138;24.768;2024-02-21T11:48:03;100307.63;;;17.98;37.51
71151;BME280;59071;42.138;24.768;2024-02-21T11:50:30;100297.91;;;18.84;35.94
71151;BME280;59071;42.138;24.768;2024-02-21T11:52:57;100290.50;;;18.16;35.95
71151;BME280;59071;42.138;24.768;2024-02-21T11:55:23;100289.94;;;18.03;35.76
71151;BME280;59071;42.138;24.768;2024-02-21T11:57:48;100291.63;;;18.95;34.91
71151;BME280;59071;42.138;24.768;2024-02-21T12:00:15;100291.47;;;18.73;34.46
71151;BME280;59071;42.138;24.768;2024-02-21T12:02:42;100281.16;;;18.36;35.12
71151;BME280;59071;42.138;24.768;2024-02-21T12:05:07;100280.94;;;18.26;35.79
71151;BME280;59071;42.138;24.768;2024-02-21T12:07:33;100284.19;;;19.19;34.02
71151;BME280;59071;42.138;24.768;2024-02-21T12:09:59;100278.13;;;18.32;34.92
71151;BME280;59071;42.138;24.768;2024-02-21T12:12:25;100270.41;;;17.84;35.72
71151;BME280;59071;42.138;24.768;2024-02-21T12:14:55;100271.38;;;18.47;35.43
71151;BME280;59071;42.138;24.768;2024-02-21T12:17:20;100262.03;;;17.68;35.40
71151;BME280;59071;42.138;24.768;2024-02-21T12:19:46;100259.59;;;17.55;35.88
71151;BME280;59071;42.138;24.768;2024-02-21T12:22:18;100260.31;;;18.31;35.48
71151;BME280;59071;42.138;24.768;2024-02-21T12:24:44;100255.22;;;18.47;34.74
71151;BME280;59071;42.138;24.768;2024-02-21T12:27:13;100261.41;;;18.02;34.91
71151;BME280;59071;42.138;24.768;2024-02-21T12:29:39;100250.72;;;18.69;34.22
71151;BME280;59071;42.138;24.768;2024-02-21T12:32:04;100247.38;;;19.13;34.05
71151;BME280;59071;42.138;24.768;2024-02-21T12:34:30;100248.69;;;18.14;34.30
71151;BME280;59071;42.138;24.768;2024-02-21T12:36:58;100242.97;;;17.70;35.18
71151;BME280;59071;42.138;24.768;2024-02-21T12:39:24;100237.56;;;17.93;35.24
71151;BME280;59071;42.138;24.768;2024-02-21T12:41:49;100231.31;;;17.52;35.38
71151;BME280;59071;42.138;24.768;2024-02-21T12:44:15;100233.47;;;17.79;35.78